createdAt,value
2018-12-09T00:00:38.045Z,20.98
2018-12-09T00:01:16.391Z,20.95
2018-12-09T00:01:54.654Z,20.96
2018-12-09T00:02:32.719Z,20.95
2018-12-09T00:03:10.679Z,20.95
2018-12-09T00:03:48.942Z,20.95
2018-12-09T00:04:26.891Z,20.94
2018-12-09T00:05:04.929Z,20.95
2018-12-09T00:05:42.871Z,20.95
2018-12-09T00:06:20.842Z,20.95
2018-12-09T00:06:58.606Z,20.93
2018-12-09T00:07:36.694Z,20.95
2018-12-09T00:08:14.650Z,20.94
2018-12-09T00:08:52.683Z,20.92
2018-12-09T00:09:30.651Z,20.90
2018-12-09T00:10:08.522Z,20.90
2018-12-09T00:10:46.623Z,20.92
2018-12-09T00:11:24.870Z,20.93
2018-12-09T00:12:03.244Z,20.92
2018-12-09T00:12:41.253Z,20.93
2018-12-09T00:13:19.122Z,20.93
2018-12-09T00:13:57.100Z,20.94
2018-12-09T00:14:34.954Z,20.91
2018-12-09T00:15:13.100Z,20.92
2018-12-09T00:15:50.869Z,20.92
2018-12-09T00:16:29.139Z,20.93
2018-12-09T00:17:07.283Z,20.94
2018-12-09T00:17:45.241Z,20.95
2018-12-09T00:18:23.282Z,20.93
2018-12-09T00:19:01.230Z,20.94
2018-12-09T00:19:39.300Z,20.93
2018-12-09T00:20:17.409Z,20.92
2018-12-09T00:20:55.189Z,20.93
2018-12-09T00:21:33.405Z,20.94
2018-12-09T00:22:11.328Z,20.94
2018-12-09T00:22:49.697Z,20.93
2018-12-09T00:23:27.489Z,20.93
2018-12-09T00:24:05.569Z,20.93
2018-12-09T00:24:43.559Z,20.93
2018-12-09T00:25:21.421Z,20.92
2018-12-09T00:25:59.902Z,20.92
2018-12-09T00:26:37.870Z,20.93
2018-12-09T00:27:15.825Z,20.92
2018-12-09T00:27:54.249Z,20.91
2018-12-09T00:28:32.307Z,20.90
2018-12-09T00:29:10.543Z,20.88
2018-12-09T00:29:48.766Z,20.89
2018-12-09T00:30:26.590Z,20.90
2018-12-09T00:31:04.567Z,20.90
2018-12-09T00:31:42.595Z,20.92
2018-12-09T00:32:20.655Z,20.93
2018-12-09T00:32:58.539Z,20.93
2018-12-09T00:33:36.647Z,20.92
2018-12-09T00:34:14.958Z,20.93
2018-12-09T00:34:53.026Z,20.91
2018-12-09T00:35:31.065Z,20.89
2018-12-09T00:36:09.055Z,20.89
2018-12-09T00:36:46.869Z,20.88
2018-12-09T00:37:25.259Z,20.89
2018-12-09T00:38:03.264Z,20.92
2018-12-09T00:38:41.340Z,20.90
2018-12-09T00:39:19.396Z,20.87
2018-12-09T00:39:57.466Z,20.88
2018-12-09T00:40:35.649Z,20.90
2018-12-09T00:41:13.750Z,20.87
2018-12-09T00:41:51.694Z,20.88
2018-12-09T00:42:29.644Z,20.89
2018-12-09T00:43:07.534Z,20.89
2018-12-09T00:43:45.713Z,20.88
2018-12-09T00:44:23.443Z,20.87
2018-12-09T00:45:01.443Z,20.88
2018-12-09T00:45:39.706Z,20.89
2018-12-09T00:46:18.054Z,20.86
2018-12-09T00:46:56.243Z,20.86
2018-12-09T00:47:33.906Z,20.85
2018-12-09T00:48:12.094Z,20.84
2018-12-09T00:48:50.013Z,20.84
2018-12-09T00:49:28.213Z,20.83
2018-12-09T00:50:06.412Z,20.83
2018-12-09T00:50:44.566Z,20.83
2018-12-09T00:51:22.544Z,20.84
2018-12-09T00:52:00.813Z,20.84
2018-12-09T00:52:38.551Z,20.84
2018-12-09T00:53:16.692Z,20.85
2018-12-09T00:53:54.685Z,20.85
2018-12-09T00:54:32.565Z,20.85
2018-12-09T00:55:10.533Z,20.86
2018-12-09T00:55:48.532Z,20.85
2018-12-09T00:56:26.301Z,20.85
2018-12-09T00:57:04.481Z,20.85
2018-12-09T00:57:42.644Z,20.85
2018-12-09T00:58:20.731Z,20.85
2018-12-09T00:58:58.920Z,20.85
2018-12-09T00:59:36.833Z,20.85
2018-12-09T01:00:14.823Z,20.85
2018-12-09T01:00:52.911Z,20.85
2018-12-09T01:01:31.039Z,20.86
2018-12-09T01:02:09.392Z,20.85
2018-12-09T01:02:47.328Z,20.84
2018-12-09T01:03:25.420Z,20.85
2018-12-09T01:04:03.200Z,20.86
2018-12-09T01:04:41.310Z,20.86
2018-12-09T01:05:19.109Z,20.85
2018-12-09T01:05:56.959Z,20.85
2018-12-09T01:06:35.380Z,20.84
2018-12-09T01:07:13.321Z,20.84
2018-12-09T01:07:51.388Z,20.84
2018-12-09T01:08:29.537Z,20.85
2018-12-09T01:09:07.656Z,20.85
2018-12-09T01:09:45.877Z,20.84
2018-12-09T01:10:24.336Z,20.85
2018-12-09T01:11:02.144Z,20.85
2018-12-09T01:11:40.385Z,20.85
2018-12-09T01:12:18.548Z,20.85
2018-12-09T01:12:56.547Z,20.84
2018-12-09T01:13:35.121Z,20.84
2018-12-09T01:14:13.227Z,20.83
2018-12-09T01:14:51.468Z,20.83
2018-12-09T01:15:29.666Z,20.82
2018-12-09T01:16:07.629Z,20.83
2018-12-09T01:16:45.790Z,20.82
2018-12-09T01:17:23.648Z,20.83
2018-12-09T01:18:02.288Z,20.82
2018-12-09T01:18:40.129Z,20.82
2018-12-09T01:19:18.007Z,20.84
2018-12-09T01:19:56.056Z,20.84
2018-12-09T01:20:33.946Z,20.83
2018-12-09T01:21:12.023Z,20.83
2018-12-09T01:21:49.907Z,20.85
2018-12-09T01:22:28.166Z,20.86
2018-12-09T01:23:05.846Z,20.83
2018-12-09T01:23:43.848Z,20.83
2018-12-09T01:24:21.866Z,20.84
2018-12-09T01:24:59.975Z,20.85
2018-12-09T01:25:37.795Z,20.84
2018-12-09T01:26:15.951Z,20.83
2018-12-09T01:26:54.414Z,20.84
2018-12-09T01:27:32.426Z,20.85
2018-12-09T01:28:10.336Z,20.86
2018-12-09T01:28:48.484Z,20.87
2018-12-09T01:29:26.617Z,20.86
2018-12-09T01:30:52.254Z,20.87
2018-12-09T01:31:30.364Z,20.88
2018-12-09T01:32:08.467Z,20.89
2018-12-09T01:32:46.441Z,20.88
2018-12-09T01:33:24.637Z,20.87
2018-12-09T01:34:02.931Z,20.87
2018-12-09T01:34:41.295Z,20.87
2018-12-09T01:35:19.174Z,20.86
2018-12-09T01:35:57.824Z,20.85
2018-12-09T01:36:36.104Z,20.85
2018-12-09T01:37:14.065Z,20.85
2018-12-09T01:37:52.087Z,20.85
2018-12-09T01:38:30.363Z,20.85
2018-12-09T01:39:08.903Z,20.85
2018-12-09T01:39:46.787Z,20.84
2018-12-09T01:40:24.764Z,20.85
2018-12-09T01:41:02.818Z,20.85
2018-12-09T01:41:41.214Z,20.86
2018-12-09T01:42:19.213Z,20.85
2018-12-09T01:42:57.295Z,20.83
2018-12-09T01:43:35.666Z,20.83
2018-12-09T01:44:13.822Z,20.84
2018-12-09T01:44:51.934Z,20.85
2018-12-09T01:45:29.763Z,20.85
2018-12-09T01:46:07.586Z,20.85
2018-12-09T01:46:45.629Z,20.85
2018-12-09T01:47:23.624Z,20.84
2018-12-09T01:48:02.433Z,20.83
2018-12-09T01:48:40.706Z,20.83
2018-12-09T01:49:18.626Z,20.83
2018-12-09T01:49:56.562Z,20.83
2018-12-09T01:50:34.382Z,20.83
2018-12-09T01:51:12.373Z,20.82
2018-12-09T01:51:50.135Z,20.84
2018-12-09T01:52:28.631Z,20.84
2018-12-09T01:53:06.232Z,20.84
2018-12-09T01:53:44.502Z,20.84
2018-12-09T01:54:22.424Z,20.85
2018-12-09T01:55:00.402Z,20.87
2018-12-09T01:55:38.341Z,20.85
2018-12-09T01:56:16.461Z,20.84
2018-12-09T01:56:55.008Z,20.82
2018-12-09T01:57:33.004Z,20.82
2018-12-09T01:58:11.684Z,20.83
2018-12-09T01:58:50.143Z,20.83
2018-12-09T01:59:28.413Z,20.84
2018-12-09T02:00:06.531Z,20.85
2018-12-09T02:00:44.552Z,20.83
2018-12-09T02:01:22.739Z,20.85
2018-12-09T02:02:00.890Z,20.85
2018-12-09T02:02:39.043Z,20.85
2018-12-09T02:03:17.072Z,20.83
2018-12-09T02:03:55.159Z,20.83
2018-12-09T02:04:33.095Z,20.83
2018-12-09T02:05:10.762Z,20.84
2018-12-09T02:05:49.735Z,20.84
2018-12-09T02:06:27.648Z,20.83
2018-12-09T02:07:05.839Z,20.81
2018-12-09T02:07:43.921Z,20.81
2018-12-09T02:08:22.008Z,20.81
2018-12-09T02:09:00.429Z,20.81
2018-12-09T02:09:38.196Z,20.82
2018-12-09T02:10:16.949Z,20.81
2018-12-09T02:10:54.886Z,20.81
2018-12-09T02:11:32.977Z,20.81
2018-12-09T02:12:11.158Z,20.81
2018-12-09T02:12:49.201Z,20.81
2018-12-09T02:13:26.938Z,20.81
2018-12-09T02:14:04.539Z,20.82
2018-12-09T02:14:44.078Z,20.79
2018-12-09T02:15:22.007Z,20.79
2018-12-09T02:16:00.192Z,20.80
2018-12-09T02:16:38.076Z,20.79
2018-12-09T02:17:16.179Z,20.79
2018-12-09T02:17:54.300Z,20.80
2018-12-09T02:18:32.446Z,20.78
2018-12-09T02:19:10.375Z,20.79
2018-12-09T02:19:48.605Z,20.79
2018-12-09T02:20:26.689Z,20.81
2018-12-09T02:21:04.386Z,20.80
2018-12-09T02:21:42.357Z,20.80
2018-12-09T02:22:20.177Z,20.80
2018-12-09T02:22:57.967Z,20.79
2018-12-09T02:23:36.327Z,20.80
2018-12-09T02:24:14.585Z,20.80
2018-12-09T02:24:52.495Z,20.81
2018-12-09T02:25:30.478Z,20.82
2018-12-09T02:26:08.315Z,20.82
2018-12-09T02:26:46.504Z,20.83
2018-12-09T02:27:24.726Z,20.82
2018-12-09T02:28:03.095Z,20.82
2018-12-09T02:28:41.004Z,20.80
2018-12-09T02:29:19.267Z,20.80
2018-12-09T02:29:57.222Z,20.81
2018-12-09T02:30:35.275Z,20.80
2018-12-09T02:31:13.154Z,20.81
2018-12-09T02:31:51.235Z,20.81
2018-12-09T02:32:29.633Z,20.79
2018-12-09T02:33:07.711Z,20.80
2018-12-09T02:33:45.736Z,20.79
2018-12-09T02:34:23.723Z,20.80
2018-12-09T02:35:01.727Z,20.80
2018-12-09T02:35:39.980Z,20.82
2018-12-09T02:36:18.135Z,20.81
2018-12-09T02:36:56.373Z,20.81
2018-12-09T02:37:34.244Z,20.80
2018-12-09T02:38:12.065Z,20.80
2018-12-09T02:38:49.864Z,20.79
2018-12-09T02:39:27.908Z,20.78
2018-12-09T02:40:05.963Z,20.78
2018-12-09T02:40:43.703Z,20.79
2018-12-09T02:41:21.824Z,20.79
2018-12-09T02:41:59.542Z,20.76
2018-12-09T02:42:37.525Z,20.78
2018-12-09T02:43:15.744Z,20.78
2018-12-09T02:43:53.593Z,20.79
2018-12-09T02:44:31.840Z,20.78
2018-12-09T02:45:09.781Z,20.78
2018-12-09T02:45:48.322Z,20.77
2018-12-09T02:46:26.642Z,20.77
2018-12-09T02:47:04.723Z,20.78
2018-12-09T02:47:43.015Z,20.80
2018-12-09T02:48:21.263Z,20.78
2018-12-09T02:48:59.151Z,20.81
2018-12-09T02:49:36.974Z,20.81
2018-12-09T02:50:14.982Z,20.80
2018-12-09T02:50:53.026Z,20.80
2018-12-09T02:51:31.177Z,20.81
2018-12-09T02:52:09.243Z,20.80
2018-12-09T02:52:47.344Z,20.81
2018-12-09T02:53:25.673Z,20.80
2018-12-09T02:54:03.392Z,20.80
2018-12-09T02:54:41.131Z,20.81
2018-12-09T02:55:19.655Z,20.79
2018-12-09T02:55:57.623Z,20.79
2018-12-09T02:56:35.626Z,20.78
2018-12-09T02:57:13.892Z,20.80
2018-12-09T02:57:51.872Z,20.81
2018-12-09T02:58:29.862Z,20.82
2018-12-09T02:59:07.933Z,20.81
2018-12-09T02:59:45.969Z,20.79
2018-12-09T03:00:24.062Z,20.77
2018-12-09T03:01:02.104Z,20.78
2018-12-09T03:01:41.239Z,20.78
2018-12-09T03:02:19.182Z,20.78
2018-12-09T03:02:57.074Z,20.78
2018-12-09T03:03:35.142Z,20.78
2018-12-09T03:04:13.066Z,20.78
2018-12-09T03:04:51.585Z,20.78
2018-12-09T03:05:29.415Z,20.79
2018-12-09T03:06:07.068Z,20.79
2018-12-09T03:06:45.152Z,20.79
2018-12-09T03:07:23.153Z,20.80
2018-12-09T03:08:00.955Z,20.80
2018-12-09T03:08:38.781Z,20.78
2018-12-09T03:09:16.913Z,20.79
2018-12-09T03:09:54.954Z,20.80
2018-12-09T03:10:32.993Z,20.79
2018-12-09T03:11:11.184Z,20.78
2018-12-09T03:11:48.989Z,20.78
2018-12-09T03:12:27.073Z,20.78
2018-12-09T03:13:05.488Z,20.78
2018-12-09T03:13:44.037Z,20.78
2018-12-09T03:14:21.997Z,20.78
2018-12-09T03:15:00.290Z,20.79
2018-12-09T03:15:38.207Z,20.77
2018-12-09T03:16:16.223Z,20.77
2018-12-09T03:16:54.233Z,20.78
2018-12-09T03:17:32.336Z,20.76
2018-12-09T03:18:10.863Z,20.75
2018-12-09T03:18:49.052Z,20.75
2018-12-09T03:19:26.706Z,20.74
2018-12-09T03:20:05.011Z,20.75
2018-12-09T03:20:43.382Z,20.75
2018-12-09T03:21:21.449Z,20.75
2018-12-09T03:21:59.507Z,20.74
2018-12-09T03:22:38.743Z,20.75
2018-12-09T03:23:16.472Z,20.75
2018-12-09T03:23:54.471Z,20.75
2018-12-09T03:24:32.422Z,20.74
2018-12-09T03:25:10.421Z,20.74
2018-12-09T03:25:48.630Z,20.73
2018-12-09T03:26:26.306Z,20.71
2018-12-09T03:27:04.462Z,20.72
2018-12-09T03:27:42.163Z,20.73
2018-12-09T03:28:20.278Z,20.72
2018-12-09T03:28:58.641Z,20.72
2018-12-09T03:29:36.681Z,20.72
2018-12-09T03:30:14.733Z,20.71
2018-12-09T03:30:52.684Z,20.72
2018-12-09T03:31:30.707Z,20.73
2018-12-09T03:32:08.559Z,20.73
2018-12-09T03:32:46.493Z,20.70
2018-12-09T03:33:24.452Z,20.70
2018-12-09T03:34:02.761Z,20.69
2018-12-09T03:34:40.921Z,20.68
2018-12-09T03:35:18.992Z,20.68
2018-12-09T03:35:57.052Z,20.68
2018-12-09T03:36:34.929Z,20.68
2018-12-09T03:37:13.181Z,20.68
2018-12-09T03:37:51.528Z,20.68
2018-12-09T03:38:29.343Z,20.68
2018-12-09T03:39:07.224Z,20.70
2018-12-09T03:39:45.074Z,20.71
2018-12-09T03:40:23.312Z,20.71
2018-12-09T03:41:01.622Z,20.72
2018-12-09T03:41:39.938Z,20.71
2018-12-09T03:42:17.892Z,20.71
2018-12-09T03:42:55.851Z,20.72
2018-12-09T03:43:33.872Z,20.71
2018-12-09T03:44:12.710Z,20.71
2018-12-09T03:44:50.993Z,20.70
2018-12-09T03:45:29.064Z,20.71
2018-12-09T03:46:07.555Z,20.70
2018-12-09T03:46:45.417Z,20.70
2018-12-09T03:47:23.611Z,20.70
2018-12-09T03:48:01.530Z,20.71
2018-12-09T03:48:39.311Z,20.70
2018-12-09T03:49:17.590Z,20.69
2018-12-09T03:49:55.841Z,20.70
2018-12-09T03:50:34.901Z,20.69
2018-12-09T03:51:13.211Z,20.68
2018-12-09T03:51:51.142Z,20.70
2018-12-09T03:52:29.042Z,20.69
2018-12-09T03:53:06.971Z,20.69
2018-12-09T03:53:44.922Z,20.69
2018-12-09T03:54:23.547Z,20.70
2018-12-09T03:55:01.819Z,20.69
2018-12-09T03:55:39.791Z,20.70
2018-12-09T03:56:17.720Z,20.70
2018-12-09T03:56:55.988Z,20.71
2018-12-09T03:57:34.416Z,20.72
2018-12-09T03:58:12.401Z,20.72
2018-12-09T03:58:50.789Z,20.72
2018-12-09T03:59:29.279Z,20.70
2018-12-09T04:00:07.214Z,20.71
2018-12-09T04:00:45.244Z,20.71
2018-12-09T04:01:23.262Z,20.71
2018-12-09T04:02:01.111Z,20.70
2018-12-09T04:02:39.153Z,20.71
2018-12-09T04:03:17.221Z,20.73
2018-12-09T04:03:54.994Z,20.74
2018-12-09T04:04:32.973Z,20.76
2018-12-09T04:05:11.190Z,20.76
2018-12-09T04:05:49.251Z,20.77
2018-12-09T04:06:27.449Z,20.79
2018-12-09T04:07:05.430Z,20.80
2018-12-09T04:07:43.342Z,20.82
2018-12-09T04:08:21.403Z,20.84
2018-12-09T04:08:59.372Z,20.84
2018-12-09T04:09:37.732Z,20.85
2018-12-09T04:10:15.859Z,20.85
2018-12-09T04:10:54.009Z,20.84
2018-12-09T04:11:32.103Z,20.85
2018-12-09T04:12:10.177Z,20.86
2018-12-09T04:12:48.431Z,20.84
2018-12-09T04:13:26.660Z,20.86
2018-12-09T04:14:05.086Z,20.86
2018-12-09T04:14:42.840Z,20.87
2018-12-09T04:15:21.974Z,20.88
2018-12-09T04:15:59.822Z,20.88
2018-12-09T04:16:37.711Z,20.89
2018-12-09T04:17:15.722Z,20.88
2018-12-09T04:17:53.748Z,20.88
2018-12-09T04:18:32.323Z,20.87
2018-12-09T04:19:10.110Z,20.88
2018-12-09T04:19:48.422Z,20.88
2018-12-09T04:20:26.239Z,20.89
2018-12-09T04:21:04.239Z,20.91
2018-12-09T04:21:42.188Z,20.92
2018-12-09T04:22:20.469Z,20.91
2018-12-09T04:22:58.718Z,20.90
2018-12-09T04:23:36.629Z,20.90
2018-12-09T04:24:14.509Z,20.92
2018-12-09T04:24:52.555Z,20.91
2018-12-09T04:25:30.568Z,20.91
2018-12-09T04:26:08.602Z,20.91
2018-12-09T04:26:46.480Z,20.90
2018-12-09T04:27:24.359Z,20.89
2018-12-09T04:28:02.582Z,20.91
2018-12-09T04:28:40.751Z,20.89
2018-12-09T04:29:18.679Z,20.89
2018-12-09T04:29:56.748Z,20.89
2018-12-09T04:30:34.838Z,20.92
2018-12-09T04:31:12.999Z,20.91
2018-12-09T04:31:51.038Z,20.92
2018-12-09T04:32:28.850Z,20.89
2018-12-09T04:33:07.329Z,20.89
2018-12-09T04:33:45.278Z,20.89
2018-12-09T04:34:23.220Z,20.90
2018-12-09T04:35:01.229Z,20.91
2018-12-09T04:35:39.409Z,20.89
2018-12-09T04:36:17.603Z,20.90
2018-12-09T04:36:56.031Z,20.90
2018-12-09T04:37:34.379Z,20.90
2018-12-09T04:38:12.579Z,20.90
2018-12-09T04:38:50.862Z,20.90
2018-12-09T04:39:28.758Z,20.92
2018-12-09T04:40:08.630Z,20.93
2018-12-09T04:40:46.818Z,20.94
2018-12-09T04:41:25.569Z,20.93
2018-12-09T04:42:04.083Z,20.93
2018-12-09T04:42:42.103Z,20.94
2018-12-09T04:43:19.773Z,20.94
2018-12-09T04:43:58.850Z,20.94
2018-12-09T04:44:37.128Z,20.95
2018-12-09T04:45:15.345Z,20.95
2018-12-09T04:45:53.393Z,20.94
2018-12-09T04:46:31.719Z,20.94
2018-12-09T04:47:09.959Z,20.94
2018-12-09T04:47:48.371Z,20.94
2018-12-09T04:48:26.139Z,20.94
2018-12-09T04:49:04.269Z,20.94
2018-12-09T04:49:42.528Z,20.95
2018-12-09T04:50:20.650Z,20.95
2018-12-09T04:50:58.929Z,20.95
2018-12-09T04:51:36.792Z,20.95
2018-12-09T04:52:14.793Z,20.96
2018-12-09T04:52:52.708Z,20.95
2018-12-09T04:53:30.752Z,20.95
2018-12-09T04:54:08.587Z,20.95
2018-12-09T04:54:46.457Z,20.94
2018-12-09T04:55:24.827Z,20.93
2018-12-09T04:56:02.767Z,20.93
2018-12-09T04:56:40.790Z,20.93
2018-12-09T04:57:18.735Z,20.93
2018-12-09T04:57:56.888Z,20.94
2018-12-09T04:58:34.889Z,20.93
2018-12-09T04:59:13.117Z,20.94
2018-12-09T04:59:50.837Z,20.93
2018-12-09T05:00:29.026Z,20.94
2018-12-09T05:01:07.076Z,20.93
2018-12-09T05:01:44.976Z,20.92
2018-12-09T05:02:22.851Z,20.92
2018-12-09T05:03:00.881Z,20.92
2018-12-09T05:03:38.948Z,20.93
2018-12-09T05:04:17.078Z,20.93
2018-12-09T05:04:55.343Z,20.93
2018-12-09T05:05:33.315Z,20.95
2018-12-09T05:06:11.377Z,20.95
2018-12-09T05:06:49.491Z,20.97
2018-12-09T05:07:27.521Z,20.96
2018-12-09T05:08:05.634Z,20.97
2018-12-09T05:08:43.887Z,20.97
2018-12-09T05:09:21.704Z,20.98
2018-12-09T05:09:59.838Z,20.97
2018-12-09T05:10:37.879Z,20.95
2018-12-09T05:11:15.949Z,20.94
2018-12-09T05:11:54.060Z,20.96
2018-12-09T05:12:32.179Z,20.94
2018-12-09T05:13:09.990Z,20.94
2018-12-09T05:13:48.371Z,20.94
2018-12-09T05:14:26.370Z,20.94
2018-12-09T05:15:04.440Z,20.92
2018-12-09T05:15:42.689Z,20.91
2018-12-09T05:16:20.762Z,20.91
2018-12-09T05:16:58.715Z,20.90
2018-12-09T05:17:36.772Z,20.90
2018-12-09T05:18:14.810Z,20.91
2018-12-09T05:18:52.981Z,20.93
2018-12-09T05:19:30.741Z,20.92
2018-12-09T05:20:08.591Z,20.93
2018-12-09T05:20:46.581Z,20.92
2018-12-09T05:21:24.826Z,20.93
2018-12-09T05:22:02.922Z,20.95
2018-12-09T05:22:40.874Z,20.95
2018-12-09T05:23:19.222Z,20.95
2018-12-09T05:23:57.185Z,20.95
2018-12-09T05:24:35.163Z,20.94
2018-12-09T05:25:13.232Z,20.93
2018-12-09T05:25:51.384Z,20.93
2018-12-09T05:26:29.522Z,20.94
2018-12-09T05:27:07.653Z,20.94
2018-12-09T05:27:45.748Z,20.95
2018-12-09T05:28:23.913Z,20.94
2018-12-09T05:29:02.343Z,20.94
2018-12-09T05:29:40.385Z,20.96
2018-12-09T05:30:18.064Z,20.95
2018-12-09T05:30:55.837Z,20.96
2018-12-09T05:31:34.214Z,20.95
2018-12-09T05:32:12.373Z,20.93
2018-12-09T05:32:50.502Z,20.94
2018-12-09T05:33:28.905Z,20.93
2018-12-09T05:34:07.544Z,20.94
2018-12-09T05:34:45.759Z,20.93
2018-12-09T05:35:23.694Z,20.91
2018-12-09T05:36:01.953Z,20.90
2018-12-09T05:36:40.079Z,20.90
2018-12-09T05:37:18.077Z,20.89
2018-12-09T05:37:55.995Z,20.93
2018-12-09T05:38:34.314Z,20.95
2018-12-09T05:39:12.454Z,20.95
2018-12-09T05:39:50.648Z,20.96
2018-12-09T05:40:28.445Z,20.96
2018-12-09T05:41:06.255Z,20.95
2018-12-09T05:41:44.298Z,20.94
2018-12-09T05:42:21.835Z,20.91
2018-12-09T05:42:59.957Z,20.90
2018-12-09T05:43:38.245Z,20.89
2018-12-09T05:44:16.265Z,20.87
2018-12-09T05:44:54.275Z,20.88
2018-12-09T05:45:32.285Z,20.88
2018-12-09T05:46:10.368Z,20.90
2018-12-09T05:46:48.296Z,20.90
2018-12-09T05:47:26.536Z,20.93
2018-12-09T05:48:05.015Z,20.94
2018-12-09T05:48:43.426Z,20.95
2018-12-09T05:49:21.127Z,20.95
2018-12-09T05:49:59.250Z,20.98
2018-12-09T05:50:37.476Z,20.97
2018-12-09T05:51:15.476Z,20.94
2018-12-09T05:51:54.005Z,20.89
2018-12-09T05:52:32.219Z,20.88
2018-12-09T05:53:10.457Z,20.86
2018-12-09T05:53:48.447Z,20.84
2018-12-09T05:54:27.557Z,20.84
2018-12-09T05:55:05.639Z,20.85
2018-12-09T05:55:43.808Z,20.84
2018-12-09T05:56:21.523Z,20.85
2018-12-09T05:57:00.416Z,20.84
2018-12-09T05:57:38.590Z,20.84
2018-12-09T05:58:16.528Z,20.83
2018-12-09T05:58:54.486Z,20.83
2018-12-09T05:59:32.756Z,20.82
2018-12-09T06:00:11.208Z,20.83
2018-12-09T06:00:49.498Z,20.84
2018-12-09T06:01:27.298Z,20.84
2018-12-09T06:02:05.167Z,20.84
2018-12-09T06:02:43.007Z,20.85
2018-12-09T06:03:21.274Z,20.86
2018-12-09T06:03:59.268Z,20.86
2018-12-09T06:04:37.179Z,20.86
2018-12-09T06:05:15.328Z,20.86
2018-12-09T06:05:53.193Z,20.86
2018-12-09T06:06:31.288Z,20.86
2018-12-09T06:07:09.058Z,20.86
2018-12-09T06:07:46.950Z,20.85
2018-12-09T06:08:25.263Z,20.86
2018-12-09T06:09:03.298Z,20.86
2018-12-09T06:09:41.180Z,20.86
2018-12-09T06:10:19.401Z,20.86
2018-12-09T06:10:57.320Z,20.86
2018-12-09T06:11:35.803Z,20.85
2018-12-09T06:12:13.866Z,20.86
2018-12-09T06:12:51.877Z,20.85
2018-12-09T06:13:29.707Z,20.84
2018-12-09T06:14:07.649Z,20.84
2018-12-09T06:14:45.669Z,20.85
2018-12-09T06:15:23.870Z,20.86
2018-12-09T06:16:01.884Z,20.86
2018-12-09T06:16:39.750Z,20.86
2018-12-09T06:17:17.649Z,20.84
2018-12-09T06:17:55.645Z,20.85
2018-12-09T06:18:33.319Z,20.85
2018-12-09T06:19:11.331Z,20.83
2018-12-09T06:19:49.511Z,20.83
2018-12-09T06:20:27.601Z,20.83
2018-12-09T06:21:05.651Z,20.82
2018-12-09T06:21:43.872Z,20.81
2018-12-09T06:22:22.294Z,20.81
2018-12-09T06:23:00.219Z,20.80
2018-12-09T06:23:38.490Z,20.80
2018-12-09T06:24:16.313Z,20.79
2018-12-09T06:24:54.272Z,20.79
2018-12-09T06:25:32.286Z,20.81
2018-12-09T06:26:11.701Z,20.80
2018-12-09T06:26:49.883Z,20.80
2018-12-09T06:27:28.032Z,20.79
2018-12-09T06:28:06.112Z,20.77
2018-12-09T06:28:44.112Z,20.78
2018-12-09T06:29:22.234Z,20.77
2018-12-09T06:30:00.224Z,20.77
2018-12-09T06:30:38.983Z,20.77
2018-12-09T06:31:16.852Z,20.78
2018-12-09T06:31:55.083Z,20.80
2018-12-09T06:32:33.027Z,20.79
2018-12-09T06:33:11.144Z,20.79
2018-12-09T06:33:49.454Z,20.79
2018-12-09T06:34:27.695Z,20.79
2018-12-09T06:35:05.944Z,20.80
2018-12-09T06:35:43.845Z,20.80
2018-12-09T06:36:22.347Z,20.80
2018-12-09T06:37:00.578Z,20.79
2018-12-09T06:37:38.528Z,20.81
2018-12-09T06:38:16.316Z,20.80
2018-12-09T06:38:54.456Z,20.81
2018-12-09T06:39:32.496Z,20.80
2018-12-09T06:40:10.558Z,20.81
2018-12-09T06:40:48.628Z,20.83
2018-12-09T06:41:26.555Z,20.83
2018-12-09T06:42:04.438Z,20.81
2018-12-09T06:42:42.305Z,20.79
2018-12-09T06:43:20.095Z,20.79
2018-12-09T06:43:58.127Z,20.78
2018-12-09T06:44:35.946Z,20.77
2018-12-09T06:45:14.060Z,20.76
2018-12-09T06:45:53.316Z,20.77
2018-12-09T06:46:31.287Z,20.78
2018-12-09T06:47:09.387Z,20.78
2018-12-09T06:47:47.467Z,20.79
2018-12-09T06:48:25.438Z,20.79
2018-12-09T06:49:03.490Z,20.78
2018-12-09T06:49:42.219Z,20.78
2018-12-09T06:50:20.310Z,20.78
2018-12-09T06:50:58.598Z,20.79
2018-12-09T06:51:36.350Z,20.77
2018-12-09T06:52:14.637Z,20.77
2018-12-09T06:52:52.278Z,20.76
2018-12-09T06:53:30.645Z,20.74
2018-12-09T06:54:08.928Z,20.73
2018-12-09T06:54:48.572Z,20.72
2018-12-09T06:55:26.628Z,20.73
2018-12-09T06:56:04.889Z,20.73
2018-12-09T06:56:43.019Z,20.72
2018-12-09T06:57:21.219Z,20.72
2018-12-09T06:57:59.143Z,20.69
2018-12-09T06:58:37.390Z,20.69
2018-12-09T06:59:15.482Z,20.72
2018-12-09T06:59:53.740Z,20.72
2018-12-09T07:00:31.931Z,20.74
2018-12-09T07:01:10.074Z,20.74
2018-12-09T07:01:48.321Z,20.75
2018-12-09T07:02:26.473Z,20.73
2018-12-09T07:03:04.120Z,20.72
2018-12-09T07:03:42.392Z,20.72
2018-12-09T07:04:20.752Z,20.69
2018-12-09T07:04:58.735Z,20.71
2018-12-09T07:05:36.932Z,20.71
2018-12-09T07:06:15.336Z,20.72
2018-12-09T07:06:53.191Z,20.73
2018-12-09T07:07:31.141Z,20.75
2018-12-09T07:08:09.181Z,20.73
2018-12-09T07:08:47.230Z,20.72
2018-12-09T07:09:25.316Z,20.70
2018-12-09T07:10:03.512Z,20.71
2018-12-09T07:10:41.443Z,20.72
2018-12-09T07:11:19.746Z,20.72
2018-12-09T07:11:57.552Z,20.71
2018-12-09T07:12:35.546Z,20.72
2018-12-09T07:13:13.816Z,20.74
2018-12-09T07:13:51.831Z,20.71
2018-12-09T07:14:30.142Z,20.72
2018-12-09T07:15:08.068Z,20.71
2018-12-09T07:15:46.023Z,20.72
2018-12-09T07:16:24.217Z,20.73
2018-12-09T07:17:02.621Z,20.73
2018-12-09T07:17:40.395Z,20.72
2018-12-09T07:18:18.523Z,20.72
2018-12-09T07:18:56.377Z,20.72
2018-12-09T07:19:34.323Z,20.71
2018-12-09T07:20:12.154Z,20.72
2018-12-09T07:20:50.051Z,20.73
2018-12-09T07:21:28.261Z,20.73
2018-12-09T07:22:06.507Z,20.72
2018-12-09T07:22:44.873Z,20.72
2018-12-09T07:23:22.893Z,20.72
2018-12-09T07:24:00.675Z,20.71
2018-12-09T07:24:39.004Z,20.71
2018-12-09T07:25:17.205Z,20.71
2018-12-09T07:25:55.403Z,20.70
2018-12-09T07:26:33.277Z,20.70
2018-12-09T07:27:12.259Z,20.70
2018-12-09T07:27:50.112Z,20.69
2018-12-09T07:28:28.102Z,20.68
2018-12-09T07:29:06.498Z,20.69
2018-12-09T07:29:44.474Z,20.70
2018-12-09T07:30:22.476Z,20.70
2018-12-09T07:31:00.603Z,20.71
2018-12-09T07:31:38.624Z,20.71
2018-12-09T07:32:16.639Z,20.72
2018-12-09T07:32:54.515Z,20.73
2018-12-09T07:33:33.516Z,20.73
2018-12-09T07:34:11.452Z,20.72
2018-12-09T07:34:49.353Z,20.71
2018-12-09T07:35:27.507Z,20.70
2018-12-09T07:36:05.675Z,20.71
2018-12-09T07:36:43.467Z,20.70
2018-12-09T07:37:21.701Z,20.71
2018-12-09T07:37:59.662Z,20.70
2018-12-09T07:38:37.914Z,20.71
2018-12-09T07:39:16.272Z,20.70
2018-12-09T07:39:54.515Z,20.70
2018-12-09T07:40:32.862Z,20.69
2018-12-09T07:41:11.237Z,20.71
2018-12-09T07:41:49.184Z,20.72
2018-12-09T07:42:27.381Z,20.71
2018-12-09T07:43:05.455Z,20.70
2018-12-09T07:43:43.833Z,20.71
2018-12-09T07:44:21.857Z,20.72
2018-12-09T07:44:59.864Z,20.73
2018-12-09T07:45:37.930Z,20.73
2018-12-09T07:46:15.972Z,20.74
2018-12-09T07:46:53.816Z,20.72
2018-12-09T07:47:31.983Z,20.71
2018-12-09T07:48:10.360Z,20.72
2018-12-09T07:48:48.484Z,20.69
2018-12-09T07:49:26.591Z,20.69
2018-12-09T07:50:05.797Z,20.69
2018-12-09T07:50:43.733Z,20.68
2018-12-09T07:51:21.461Z,20.69
2018-12-09T07:51:59.573Z,20.68
2018-12-09T07:52:37.841Z,20.68
2018-12-09T07:53:16.042Z,20.68
2018-12-09T07:53:54.284Z,20.70
2018-12-09T07:54:32.030Z,20.69
2018-12-09T07:55:10.142Z,20.69
2018-12-09T07:55:48.441Z,20.69
2018-12-09T07:56:26.462Z,20.70
2018-12-09T07:57:04.765Z,20.71
2018-12-09T07:57:42.831Z,20.72
2018-12-09T07:58:20.930Z,20.72
2018-12-09T07:58:58.920Z,20.72
2018-12-09T07:59:37.209Z,20.71
2018-12-09T08:00:15.210Z,20.70
2018-12-09T08:00:52.911Z,20.72
2018-12-09T08:01:31.121Z,20.72
2018-12-09T08:02:09.172Z,20.72
2018-12-09T08:02:47.051Z,20.72
2018-12-09T08:03:25.160Z,20.71
2018-12-09T08:04:03.057Z,20.72
2018-12-09T08:04:41.660Z,20.72
2018-12-09T08:05:19.770Z,20.72
2018-12-09T08:05:57.733Z,20.73
2018-12-09T08:06:35.931Z,20.74
2018-12-09T08:07:13.922Z,20.74
2018-12-09T08:07:51.962Z,20.75
2018-12-09T08:08:29.998Z,20.74
2018-12-09T08:09:07.981Z,20.74
2018-12-09T08:09:47.121Z,20.75
2018-12-09T08:10:24.981Z,20.74
2018-12-09T08:11:02.966Z,20.73
2018-12-09T08:11:41.116Z,20.73